sensor_id;sensor_type;location;lat;lon;timestamp;P1;durP1;ratioP1;P2;durP2;ratioP2
52878;SDS011;38747;53.140;6.498;2024-03-23T00:54:41;18.20;;;2.65;;
52878;SDS011;38747;53.140;6.498;2024-03-23T00:57:07;16.42;;;2.97;;
52878;SDS011;38747;53.140;6.498;2024-03-23T00:59:34;14.87;;;3.40;;
52878;SDS011;38747;53.140;6.498;2024-03-23T01:02:00;13.55;;;3.20;;
52878;SDS011;38747;53.140;6.498;2024-03-23T01:04:26;14.40;;;2.60;;
52878;SDS011;38747;53.140;6.498;2024-03-23T01:06:51;19.70;;;2.97;;
52878;SDS011;38747;53.140;6.498;2024-03-23T01:09:17;14.67;;;3.03;;
52878;SDS011;38747;53.140;6.498;2024-03-23T01:11:42;11.80;;;3.10;;
52878;SDS011;38747;53.140;6.498;2024-03-23T01:14:08;13.30;;;2.80;;
52878;SDS011;38747;53.140;6.498;2024-03-23T01:16:33;13.47;;;2.43;;
52878;SDS011;38747;53.140;6.498;2024-03-23T01:18:59;13.90;;;2.22;;
52878;SDS011;38747;53.140;6.498;2024-03-23T01:21:25;13.77;;;2.50;;
52878;SDS011;38747;53.140;6.498;2024-03-23T01:23:50;14.47;;;3.13;;
52878;SDS011;38747;53.140;6.498;2024-03-23T01:26:16;17.50;;;2.70;;
52878;SDS011;38747;53.140;6.498;2024-03-23T01:28:42;15.57;;;3.33;;
52878;SDS011;38747;53.140;6.498;2024-03-23T01:31:07;13.93;;;3.25;;
52878;SDS011;38747;53.140;6.498;2024-03-23T01:33:33;10.47;;;2.53;;
52878;SDS011;38747;53.140;6.498;2024-03-23T01:35:59;11.07;;;2.60;;
52878;SDS011;38747;53.140;6.498;2024-03-23T01:38:24;18.67;;;2.90;;
52878;SDS011;38747;53.140;6.498;2024-03-23T01:40:55;14.50;;;2.70;;
52878;SDS011;38747;53.140;6.498;2024-03-23T01:43:22;12.87;;;2.60;;
52878;SDS011;38747;53.140;6.498;2024-03-23T01:45:48;14.48;;;2.80;;
52878;SDS011;38747;53.140;6.498;2024-03-23T01:48:13;13.97;;;2.60;;
52878;SDS011;38747;53.140;6.498;2024-03-23T01:50:39;10.63;;;2.42;;
52878;SDS011;38747;53.140;6.498;2024-03-23T01:53:04;14.77;;;2.47;;
52878;SDS011;38747;53.140;6.498;2024-03-23T01:55:34;15.68;;;2.65;;
52878;SDS011;38747;53.140;6.498;2024-03-23T01:58:00;14.55;;;2.50;;
52878;SDS011;38747;53.140;6.498;2024-03-23T02:00:25;20.97;;;2.67;;
52878;SDS011;38747;53.140;6.498;2024-03-23T02:02:53;13.45;;;2.67;;
52878;SDS011;38747;53.140;6.498;2024-03-23T02:05:18;13.20;;;2.70;;
52878;SDS011;38747;53.140;6.498;2024-03-23T02:07:44;16.00;;;2.83;;
52878;SDS011;38747;53.140;6.498;2024-03-23T02:10:10;13.27;;;2.83;;
52878;SDS011;38747;53.140;6.498;2024-03-23T02:12:38;14.55;;;2.70;;
52878;SDS011;38747;53.140;6.498;2024-03-23T02:15:04;14.52;;;2.55;;
52878;SDS011;38747;53.140;6.498;2024-03-23T02:17:30;13.67;;;2.30;;
52878;SDS011;38747;53.140;6.498;2024-03-23T02:19:58;19.60;;;2.65;;
52878;SDS011;38747;53.140;6.498;2024-03-23T02:22:23;17.70;;;2.38;;
52878;SDS011;38747;53.140;6.498;2024-03-23T02:24:49;10.90;;;2.73;;
52878;SDS011;38747;53.140;6.498;2024-03-23T02:27:16;10.63;;;2.70;;
52878;SDS011;38747;53.140;6.498;2024-03-23T02:29:42;14.85;;;2.30;;
52878;SDS011;38747;53.140;6.498;2024-03-23T02:32:07;13.27;;;2.30;;
52878;SDS011;38747;53.140;6.498;2024-03-23T02:34:34;14.23;;;2.03;;
52878;SDS011;38747;53.140;6.498;2024-03-23T02:37:00;15.07;;;2.72;;
52878;SDS011;38747;53.140;6.498;2024-03-23T02:39:26;11.82;;;2.35;;
52878;SDS011;38747;53.140;6.498;2024-03-23T02:41:51;16.87;;;3.60;;
52878;SDS011;38747;53.140;6.498;2024-03-23T02:44:17;12.57;;;2.53;;
52878;SDS011;38747;53.140;6.498;2024-03-23T02:46:42;16.83;;;2.60;;
52878;SDS011;38747;53.140;6.498;2024-03-23T02:49:08;13.77;;;2.87;;
52878;SDS011;38747;53.140;6.498;2024-03-23T02:51:33;9.40;;;1.83;;
52878;SDS011;38747;53.140;6.498;2024-03-23T02:53:59;19.40;;;2.90;;
52878;SDS011;38747;53.140;6.498;2024-03-23T02:56:25;15.10;;;2.78;;
52878;SDS011;38747;53.140;6.498;2024-03-23T02:58:50;13.57;;;2.50;;
52878;SDS011;38747;53.140;6.498;2024-03-23T03:01:16;13.73;;;2.40;;
52878;SDS011;38747;53.140;6.498;2024-03-23T03:03:41;11.50;;;2.40;;
52878;SDS011;38747;53.140;6.498;2024-03-23T03:06:07;15.93;;;2.40;;
52878;SDS011;38747;53.140;6.498;2024-03-23T03:08:33;10.55;;;2.40;;
52878;SDS011;38747;53.140;6.498;2024-03-23T03:10:58;12.13;;;2.40;;
52878;SDS011;38747;53.140;6.498;2024-03-23T03:13:24;11.80;;;2.45;;
52878;SDS011;38747;53.140;6.498;2024-03-23T03:15:50;13.03;;;2.80;;
52878;SDS011;38747;53.140;6.498;2024-03-23T03:18:15;16.17;;;2.53;;
52878;SDS011;38747;53.140;6.498;2024-03-23T03:20:41;10.38;;;2.33;;
52878;SDS011;38747;53.140;6.498;2024-03-23T03:23:07;12.17;;;2.40;;
52878;SDS011;38747;53.140;6.498;2024-03-23T03:25:32;10.35;;;2.30;;
52878;SDS011;38747;53.140;6.498;2024-03-23T03:27:59;11.55;;;2.45;;
52878;SDS011;38747;53.140;6.498;2024-03-23T03:30:24;13.73;;;3.07;;
52878;SDS011;38747;53.140;6.498;2024-03-23T03:32:53;12.40;;;2.22;;
52878;SDS011;38747;53.140;6.498;2024-03-23T03:35:19;9.52;;;2.33;;
52878;SDS011;38747;53.140;6.498;2024-03-23T03:37:45;11.48;;;2.17;;
52878;SDS011;38747;53.140;6.498;2024-03-23T03:40:11;9.37;;;2.30;;
52878;SDS011;38747;53.140;6.498;2024-03-23T03:42:37;11.20;;;2.75;;
52878;SDS011;38747;53.140;6.498;2024-03-23T03:45:03;13.20;;;2.53;;
52878;SDS011;38747;53.140;6.498;2024-03-23T03:47:29;14.73;;;2.00;;
52878;SDS011;38747;53.140;6.498;2024-03-23T03:49:55;11.60;;;2.33;;
52878;SDS011;38747;53.140;6.498;2024-03-23T03:52:21;8.97;;;2.17;;
52878;SDS011;38747;53.140;6.498;2024-03-23T03:54:48;11.00;;;2.10;;
52878;SDS011;38747;53.140;6.498;2024-03-23T03:57:13;10.70;;;2.20;;
52878;SDS011;38747;53.140;6.498;2024-03-23T03:59:39;11.10;;;2.10;;
52878;SDS011;38747;53.140;6.498;2024-03-23T04:02:04;16.30;;;3.43;;
52878;SDS011;38747;53.140;6.498;2024-03-23T04:04:30;10.30;;;2.47;;
52878;SDS011;38747;53.140;6.498;2024-03-23T04:06:59;14.57;;;2.07;;
52878;SDS011;38747;53.140;6.498;2024-03-23T04:09:25;12.02;;;2.40;;
52878;SDS011;38747;53.140;6.498;2024-03-23T04:11:52;12.60;;;2.50;;
52878;SDS011;38747;53.140;6.498;2024-03-23T04:14:17;12.18;;;2.72;;
52878;SDS011;38747;53.140;6.498;2024-03-23T04:16:46;8.90;;;2.00;;
52878;SDS011;38747;53.140;6.498;2024-03-23T04:19:12;18.17;;;2.53;;
52878;SDS011;38747;53.140;6.498;2024-03-23T04:21:38;11.88;;;2.15;;
52878;SDS011;38747;53.140;6.498;2024-03-23T04:24:04;12.40;;;2.10;;
52878;SDS011;38747;53.140;6.498;2024-03-23T04:26:30;12.60;;;2.53;;
52878;SDS011;38747;53.140;6.498;2024-03-23T04:28:55;14.88;;;2.10;;
52878;SDS011;38747;53.140;6.498;2024-03-23T04:31:21;13.57;;;2.40;;
52878;SDS011;38747;53.140;6.498;2024-03-23T04:33:47;13.63;;;2.55;;
52878;SDS011;38747;53.140;6.498;2024-03-23T04:36:12;14.70;;;3.03;;
52878;SDS011;38747;53.140;6.498;2024-03-23T04:38:39;14.52;;;2.20;;
52878;SDS011;38747;53.140;6.498;2024-03-23T04:41:05;10.17;;;1.90;;
52878;SDS011;38747;53.140;6.498;2024-03-23T04:43:31;12.00;;;2.60;;
52878;SDS011;38747;53.140;6.498;2024-03-23T04:45:58;14.02;;;2.78;;
52878;SDS011;38747;53.140;6.498;2024-03-23T04:48:23;14.80;;;2.80;;
52878;SDS011;38747;53.140;6.498;2024-03-23T04:50:49;12.90;;;2.00;;
52878;SDS011;38747;53.140;6.498;2024-03-23T04:53:25;13.18;;;2.28;;
52878;SDS011;38747;53.140;6.498;2024-03-23T04:55:54;10.40;;;2.38;;
52878;SDS011;38747;53.140;6.498;2024-03-23T04:58:24;11.32;;;2.55;;
52878;SDS011;38747;53.140;6.498;2024-03-23T05:00:56;11.23;;;2.00;;
52878;SDS011;38747;53.140;6.498;2024-03-23T05:03:22;7.37;;;2.30;;
52878;SDS011;38747;53.140;6.498;2024-03-23T05:05:49;7.05;;;1.83;;
52878;SDS011;38747;53.140;6.498;2024-03-23T05:08:15;11.65;;;2.20;;
52878;SDS011;38747;53.140;6.498;2024-03-23T05:10:41;13.40;;;2.30;;
52878;SDS011;38747;53.140;6.498;2024-03-23T05:13:08;7.87;;;1.97;;
52878;SDS011;38747;53.140;6.498;2024-03-23T05:15:33;6.20;;;1.92;;
52878;SDS011;38747;53.140;6.498;2024-03-23T05:17:59;13.18;;;2.45;;
52878;SDS011;38747;53.140;6.498;2024-03-23T05:20:25;9.35;;;1.90;;
52878;SDS011;38747;53.140;6.498;2024-03-23T05:22:51;16.13;;;2.30;;
52878;SDS011;38747;53.140;6.498;2024-03-23T05:25:17;9.47;;;2.07;;
52878;SDS011;38747;53.140;6.498;2024-03-23T05:27:42;13.13;;;2.30;;
52878;SDS011;38747;53.140;6.498;2024-03-23T05:30:08;11.53;;;2.50;;
52878;SDS011;38747;53.140;6.498;2024-03-23T05:32:34;10.18;;;2.03;;
52878;SDS011;38747;53.140;6.498;2024-03-23T05:34:59;9.10;;;2.20;;
52878;SDS011;38747;53.140;6.498;2024-03-23T05:37:25;11.43;;;1.93;;
52878;SDS011;38747;53.140;6.498;2024-03-23T05:39:51;8.57;;;1.90;;
52878;SDS011;38747;53.140;6.498;2024-03-23T05:42:18;8.60;;;2.03;;
52878;SDS011;38747;53.140;6.498;2024-03-23T05:44:44;8.48;;;2.17;;
52878;SDS011;38747;53.140;6.498;2024-03-23T05:47:10;9.05;;;2.15;;
52878;SDS011;38747;53.140;6.498;2024-03-23T05:49:38;8.10;;;2.00;;
52878;SDS011;38747;53.140;6.498;2024-03-23T05:52:03;10.00;;;2.07;;
52878;SDS011;38747;53.140;6.498;2024-03-23T05:54:29;16.27;;;2.45;;
52878;SDS011;38747;53.140;6.498;2024-03-23T05:56:55;14.77;;;2.00;;
52878;SDS011;38747;53.140;6.498;2024-03-23T05:59:21;8.40;;;2.05;;
52878;SDS011;38747;53.140;6.498;2024-03-23T06:01:47;11.80;;;1.97;;
52878;SDS011;38747;53.140;6.498;2024-03-23T06:04:12;10.45;;;1.88;;
52878;SDS011;38747;53.140;6.498;2024-03-23T06:06:39;9.25;;;1.70;;
52878;SDS011;38747;53.140;6.498;2024-03-23T06:09:04;8.93;;;1.17;;
52878;SDS011;38747;53.140;6.498;2024-03-23T06:11:30;5.30;;;1.30;;
52878;SDS011;38747;53.140;6.498;2024-03-23T06:13:56;6.85;;;1.40;;
52878;SDS011;38747;53.140;6.498;2024-03-23T06:16:21;8.60;;;1.27;;
52878;SDS011;38747;53.140;6.498;2024-03-23T06:18:50;7.45;;;1.55;;
52878;SDS011;38747;53.140;6.498;2024-03-23T06:21:16;9.30;;;1.77;;
52878;SDS011;38747;53.140;6.498;2024-03-23T06:23:42;6.43;;;1.00;;
52878;SDS011;38747;53.140;6.498;2024-03-23T06:26:08;4.43;;;0.93;;
52878;SDS011;38747;53.140;6.498;2024-03-23T06:28:33;5.55;;;1.05;;
52878;SDS011;38747;53.140;6.498;2024-03-23T06:30:59;4.50;;;1.10;;
52878;SDS011;38747;53.140;6.498;2024-03-23T06:33:25;8.17;;;1.30;;
52878;SDS011;38747;53.140;6.498;2024-03-23T06:35:51;6.00;;;1.35;;
52878;SDS011;38747;53.140;6.498;2024-03-23T06:38:17;10.23;;;1.60;;
52878;SDS011;38747;53.140;6.498;2024-03-23T06:40:43;5.93;;;1.20;;
52878;SDS011;38747;53.140;6.498;2024-03-23T06:43:13;7.22;;;1.30;;
52878;SDS011;38747;53.140;6.498;2024-03-23T06:45:38;7.53;;;1.35;;
52878;SDS011;38747;53.140;6.498;2024-03-23T06:48:04;5.10;;;1.30;;
52878;SDS011;38747;53.140;6.498;2024-03-23T06:50:33;6.65;;;1.20;;
52878;SDS011;38747;53.140;6.498;2024-03-23T06:52:59;5.68;;;1.20;;
52878;SDS011;38747;53.140;6.498;2024-03-23T06:55:24;4.90;;;1.17;;
52878;SDS011;38747;53.140;6.498;2024-03-23T06:57:52;4.20;;;1.10;;
52878;SDS011;38747;53.140;6.498;2024-03-23T07:00:17;4.28;;;1.00;;
52878;SDS011;38747;53.140;6.498;2024-03-23T07:02:43;7.97;;;1.10;;
52878;SDS011;38747;53.140;6.498;2024-03-23T07:05:09;11.73;;;1.50;;
52878;SDS011;38747;53.140;6.498;2024-03-23T07:07:36;7.45;;;1.50;;
52878;SDS011;38747;53.140;6.498;2024-03-23T07:10:04;6.70;;;1.40;;
52878;SDS011;38747;53.140;6.498;2024-03-23T07:12:30;4.18;;;1.10;;
52878;SDS011;38747;53.140;6.498;2024-03-23T07:14:56;6.97;;;1.23;;
52878;SDS011;38747;53.140;6.498;2024-03-23T07:17:21;5.20;;;1.33;;
52878;SDS011;38747;53.140;6.498;2024-03-23T07:19:47;6.57;;;0.90;;
52878;SDS011;38747;53.140;6.498;2024-03-23T07:22:13;5.10;;;1.10;;
52878;SDS011;38747;53.140;6.498;2024-03-23T07:24:39;5.47;;;0.97;;
52878;SDS011;38747;53.140;6.498;2024-03-23T07:27:06;4.57;;;1.00;;
52878;SDS011;38747;53.140;6.498;2024-03-23T07:29:35;3.63;;;0.75;;
52878;SDS011;38747;53.140;6.498;2024-03-23T07:32:01;3.67;;;0.80;;
52878;SDS011;38747;53.140;6.498;2024-03-23T07:34:26;2.72;;;0.70;;
52878;SDS011;38747;53.140;6.498;2024-03-23T07:36:52;5.53;;;0.80;;
52878;SDS011;38747;53.140;6.498;2024-03-23T07:39:17;4.63;;;0.90;;
52878;SDS011;38747;53.140;6.498;2024-03-23T07:41:46;5.23;;;0.90;;
52878;SDS011;38747;53.140;6.498;2024-03-23T07:44:12;7.72;;;1.00;;
52878;SDS011;38747;53.140;6.498;2024-03-23T07:46:37;2.57;;;0.73;;
52878;SDS011;38747;53.140;6.498;2024-03-23T07:49:06;4.90;;;1.10;;
52878;SDS011;38747;53.140;6.498;2024-03-23T07:51:32;5.90;;;1.00;;
52878;SDS011;38747;53.140;6.498;2024-03-23T07:53:58;6.47;;;1.30;;
52878;SDS011;38747;53.140;6.498;2024-03-23T07:56:24;3.55;;;1.00;;
52878;SDS011;38747;53.140;6.498;2024-03-23T07:58:50;6.90;;;1.45;;
52878;SDS011;38747;53.140;6.498;2024-03-23T08:01:16;5.67;;;1.10;;
52878;SDS011;38747;53.140;6.498;2024-03-23T08:03:45;4.60;;;1.10;;
52878;SDS011;38747;53.140;6.498;2024-03-23T08:08:38;7.10;;;1.40;;
52878;SDS011;38747;53.140;6.498;2024-03-23T08:11:04;7.18;;;1.60;;
52878;SDS011;38747;53.140;6.498;2024-03-23T08:13:30;8.23;;;1.27;;
52878;SDS011;38747;53.140;6.498;2024-03-23T08:16:00;4.38;;;1.10;;
52878;SDS011;38747;53.140;6.498;2024-03-23T08:18:26;4.77;;;1.07;;
52878;SDS011;38747;53.140;6.498;2024-03-23T08:20:58;5.05;;;1.20;;
52878;SDS011;38747;53.140;6.498;2024-03-23T08:23:28;8.68;;;1.48;;
52878;SDS011;38747;53.140;6.498;2024-03-23T08:25:58;8.02;;;1.50;;
52878;SDS011;38747;53.140;6.498;2024-03-23T08:28:25;7.07;;;1.20;;
52878;SDS011;38747;53.140;6.498;2024-03-23T08:30:52;5.47;;;1.33;;
52878;SDS011;38747;53.140;6.498;2024-03-23T08:33:18;5.43;;;1.27;;
52878;SDS011;38747;53.140;6.498;2024-03-23T08:35:53;9.03;;;1.60;;
52878;SDS011;38747;53.140;6.498;2024-03-23T08:38:19;7.67;;;1.50;;
52878;SDS011;38747;53.140;6.498;2024-03-23T08:40:45;7.68;;;1.58;;
52878;SDS011;38747;53.140;6.498;2024-03-23T08:43:11;7.63;;;1.70;;
52878;SDS011;38747;53.140;6.498;2024-03-23T08:45:36;7.85;;;1.40;;
52878;SDS011;38747;53.140;6.498;2024-03-23T08:48:02;6.73;;;2.13;;
52878;SDS011;38747;53.140;6.498;2024-03-23T08:50:28;4.55;;;1.42;;
52878;SDS011;38747;53.140;6.498;2024-03-23T08:52:53;8.73;;;1.70;;
52878;SDS011;38747;53.140;6.498;2024-03-23T08:55:19;8.37;;;1.50;;
52878;SDS011;38747;53.140;6.498;2024-03-23T08:57:44;9.77;;;1.87;;
52878;SDS011;38747;53.140;6.498;2024-03-23T09:00:10;7.87;;;1.67;;
52878;SDS011;38747;53.140;6.498;2024-03-23T09:02:36;7.53;;;1.58;;
52878;SDS011;38747;53.140;6.498;2024-03-23T09:05:02;8.23;;;1.70;;
52878;SDS011;38747;53.140;6.498;2024-03-23T09:07:32;7.50;;;1.80;;
52878;SDS011;38747;53.140;6.498;2024-03-23T09:09:59;7.87;;;1.87;;
52878;SDS011;38747;53.140;6.498;2024-03-23T09:12:25;6.80;;;1.67;;
52878;SDS011;38747;53.140;6.498;2024-03-23T09:14:50;9.30;;;1.80;;
52878;SDS011;38747;53.140;6.498;2024-03-23T09:17:17;9.67;;;1.53;;
52878;SDS011;38747;53.140;6.498;2024-03-23T09:19:43;8.07;;;1.45;;
52878;SDS011;38747;53.140;6.498;2024-03-23T09:22:08;8.07;;;1.75;;
52878;SDS011;38747;53.140;6.498;2024-03-23T09:24:34;8.60;;;1.27;;
52878;SDS011;38747;53.140;6.498;2024-03-23T09:27:00;9.57;;;1.23;;
52878;SDS011;38747;53.140;6.498;2024-03-23T09:29:25;7.43;;;1.13;;
52878;SDS011;38747;53.140;6.498;2024-03-23T09:31:51;4.87;;;1.10;;
52878;SDS011;38747;53.140;6.498;2024-03-23T09:34:16;8.13;;;1.23;;
52878;SDS011;38747;53.140;6.498;2024-03-23T09:36:42;5.90;;;1.40;;
52878;SDS011;38747;53.140;6.498;2024-03-23T09:39:09;5.68;;;1.20;;
52878;SDS011;38747;53.140;6.498;2024-03-23T09:41:35;4.50;;;0.65;;
52878;SDS011;38747;53.140;6.498;2024-03-23T09:44:01;3.40;;;0.90;;
52878;SDS011;38747;53.140;6.498;2024-03-23T09:46:27;3.58;;;0.70;;
52878;SDS011;38747;53.140;6.498;2024-03-23T09:48:53;6.15;;;0.85;;
52878;SDS011;38747;53.140;6.498;2024-03-23T09:51:21;4.22;;;1.08;;
52878;SDS011;38747;53.140;6.498;2024-03-23T09:53:46;6.30;;;1.10;;
52878;SDS011;38747;53.140;6.498;2024-03-23T09:56:12;4.22;;;0.90;;
52878;SDS011;38747;53.140;6.498;2024-03-23T09:58:38;5.40;;;1.10;;
52878;SDS011;38747;53.140;6.498;2024-03-23T10:01:04;6.50;;;1.10;;
52878;SDS011;38747;53.140;6.498;2024-03-23T10:03:30;4.57;;;1.00;;
52878;SDS011;38747;53.140;6.498;2024-03-23T10:06:02;4.97;;;0.90;;
52878;SDS011;38747;53.140;6.498;2024-03-23T10:08:30;6.13;;;1.00;;
52878;SDS011;38747;53.140;6.498;2024-03-23T10:10:56;7.22;;;1.00;;
52878;SDS011;38747;53.140;6.498;2024-03-23T10:13:25;4.25;;;1.20;;
52878;SDS011;38747;53.140;6.498;2024-03-23T10:15:55;8.48;;;1.40;;
52878;SDS011;38747;53.140;6.498;2024-03-23T10:18:22;9.60;;;1.65;;
52878;SDS011;38747;53.140;6.498;2024-03-23T10:21:06;5.17;;;1.00;;
52878;SDS011;38747;53.140;6.498;2024-03-23T10:23:32;4.53;;;1.10;;
52878;SDS011;38747;53.140;6.498;2024-03-23T10:26:20;8.82;;;1.50;;
52878;SDS011;38747;53.140;6.498;2024-03-23T10:28:50;8.13;;;1.42;;
52878;SDS011;38747;53.140;6.498;2024-03-23T10:31:16;8.25;;;1.25;;
52878;SDS011;38747;53.140;6.498;2024-03-23T10:33:48;5.13;;;1.10;;
52878;SDS011;38747;53.140;6.498;2024-03-23T10:36:14;7.60;;;1.25;;
52878;SDS011;38747;53.140;6.498;2024-03-23T10:38:41;6.23;;;0.80;;
52878;SDS011;38747;53.140;6.498;2024-03-23T10:41:11;10.67;;;1.63;;
52878;SDS011;38747;53.140;6.498;2024-03-23T10:43:37;8.85;;;1.20;;
52878;SDS011;38747;53.140;6.498;2024-03-23T10:46:03;7.43;;;1.20;;
52878;SDS011;38747;53.140;6.498;2024-03-23T10:48:33;8.70;;;1.30;;
52878;SDS011;38747;53.140;6.498;2024-03-23T10:50:59;9.02;;;1.05;;
52878;SDS011;38747;53.140;6.498;2024-03-23T10:53:26;10.80;;;1.20;;
52878;SDS011;38747;53.140;6.498;2024-03-23T10:55:52;6.18;;;1.20;;
52878;SDS011;38747;53.140;6.498;2024-03-23T10:58:20;7.28;;;1.30;;
52878;SDS011;38747;53.140;6.498;2024-03-23T11:00:49;6.15;;;1.40;;
52878;SDS011;38747;53.140;6.498;2024-03-23T11:03:31;6.13;;;1.37;;
52878;SDS011;38747;53.140;6.498;2024-03-23T11:06:01;8.20;;;1.63;;
52878;SDS011;38747;53.140;6.498;2024-03-23T11:11:21;4.45;;;1.10;;
52878;SDS011;38747;53.140;6.498;2024-03-23T11:13:50;9.63;;;1.47;;
52878;SDS011;38747;53.140;6.498;2024-03-23T11:16:24;6.25;;;1.10;;
52878;SDS011;38747;53.140;6.498;2024-03-23T11:18:57;3.60;;;1.00;;
52878;SDS011;38747;53.140;6.498;2024-03-23T11:21:59;8.02;;;1.20;;
52878;SDS011;38747;53.140;6.498;2024-03-23T11:24:26;7.20;;;1.00;;
52878;SDS011;38747;53.140;6.498;2024-03-23T11:26:51;6.60;;;1.10;;
52878;SDS011;38747;53.140;6.498;2024-03-23T11:29:17;6.80;;;1.20;;
52878;SDS011;38747;53.140;6.498;2024-03-23T11:31:51;9.18;;;1.42;;
52878;SDS011;38747;53.140;6.498;2024-03-23T11:34:18;7.43;;;1.40;;
52878;SDS011;38747;53.140;6.498;2024-03-23T11:36:45;5.65;;;1.15;;
52878;SDS011;38747;53.140;6.498;2024-03-23T11:39:12;8.67;;;1.10;;
52878;SDS011;38747;53.140;6.498;2024-03-23T11:41:48;6.35;;;1.20;;
52878;SDS011;38747;53.140;6.498;2024-03-23T11:44:21;4.47;;;1.05;;
52878;SDS011;38747;53.140;6.498;2024-03-23T11:46:48;7.85;;;1.33;;
52878;SDS011;38747;53.140;6.498;2024-03-23T11:51:47;7.80;;;1.43;;
52878;SDS011;38747;53.140;6.498;2024-03-23T11:54:13;5.63;;;1.60;;
52878;SDS011;38747;53.140;6.498;2024-03-23T11:56:39;7.55;;;0.95;;
52878;SDS011;38747;53.140;6.498;2024-03-23T11:59:05;5.60;;;1.00;;
52878;SDS011;38747;53.140;6.498;2024-03-23T12:01:31;4.93;;;0.90;;
52878;SDS011;38747;53.140;6.498;2024-03-23T12:03:57;4.53;;;0.80;;
52878;SDS011;38747;53.140;6.498;2024-03-23T12:06:23;5.93;;;1.17;;
52878;SDS011;38747;53.140;6.498;2024-03-23T12:08:48;6.53;;;1.10;;
52878;SDS011;38747;53.140;6.498;2024-03-23T12:11:17;5.70;;;0.80;;
52878;SDS011;38747;53.140;6.498;2024-03-23T12:13:44;4.47;;;0.98;;
52878;SDS011;38747;53.140;6.498;2024-03-23T12:18:42;6.23;;;1.43;;
52878;SDS011;38747;53.140;6.498;2024-03-23T12:21:15;5.32;;;0.70;;
52878;SDS011;38747;53.140;6.498;2024-03-23T12:23:44;4.43;;;1.15;;
52878;SDS011;38747;53.140;6.498;2024-03-23T12:26:10;6.37;;;1.07;;
52878;SDS011;38747;53.140;6.498;2024-03-23T12:28:37;5.90;;;0.90;;
52878;SDS011;38747;53.140;6.498;2024-03-23T12:31:03;4.55;;;1.05;;
52878;SDS011;38747;53.140;6.498;2024-03-23T12:33:29;6.82;;;1.00;;
52878;SDS011;38747;53.140;6.498;2024-03-23T12:35:54;3.67;;;1.20;;
52878;SDS011;38747;53.140;6.498;2024-03-23T12:38:20;6.38;;;1.02;;
52878;SDS011;38747;53.140;6.498;2024-03-23T12:40:46;4.93;;;1.10;;
52878;SDS011;38747;53.140;6.498;2024-03-23T12:43:15;6.65;;;0.82;;
52878;SDS011;38747;53.140;6.498;2024-03-23T12:45:48;8.18;;;1.95;;
52878;SDS011;38747;53.140;6.498;2024-03-23T12:48:15;35.87;;;12.50;;
52878;SDS011;38747;53.140;6.498;2024-03-23T12:50:41;4.45;;;1.20;;
52878;SDS011;38747;53.140;6.498;2024-03-23T12:53:06;5.05;;;0.80;;
52878;SDS011;38747;53.140;6.498;2024-03-23T12:55:32;5.70;;;0.90;;
52878;SDS011;38747;53.140;6.498;2024-03-23T12:58:00;3.88;;;0.90;;
52878;SDS011;38747;53.140;6.498;2024-03-23T13:00:26;4.43;;;0.73;;
52878;SDS011;38747;53.140;6.498;2024-03-23T13:02:52;2.67;;;0.60;;
52878;SDS011;38747;53.140;6.498;2024-03-23T13:05:18;4.93;;;0.93;;
52878;SDS011;38747;53.140;6.498;2024-03-23T13:07:43;3.07;;;0.87;;
52878;SDS011;38747;53.140;6.498;2024-03-23T13:10:09;3.35;;;0.63;;
52878;SDS011;38747;53.140;6.498;2024-03-23T13:12:38;3.33;;;1.00;;
52878;SDS011;38747;53.140;6.498;2024-03-23T13:15:08;4.88;;;1.00;;
52878;SDS011;38747;53.140;6.498;2024-03-23T13:17:37;3.63;;;0.70;;
52878;SDS011;38747;53.140;6.498;2024-03-23T13:20:02;5.72;;;1.10;;
52878;SDS011;38747;53.140;6.498;2024-03-23T13:22:29;5.90;;;1.17;;
52878;SDS011;38747;53.140;6.498;2024-03-23T13:24:55;6.78;;;1.27;;
52878;SDS011;38747;53.140;6.498;2024-03-23T13:27:20;6.85;;;1.20;;
52878;SDS011;38747;53.140;6.498;2024-03-23T13:29:46;10.37;;;1.67;;
52878;SDS011;38747;53.140;6.498;2024-03-23T13:32:12;7.55;;;1.05;;
52878;SDS011;38747;53.140;6.498;2024-03-23T13:34:41;7.27;;;1.20;;
52878;SDS011;38747;53.140;6.498;2024-03-23T13:37:07;5.78;;;1.40;;
52878;SDS011;38747;53.140;6.498;2024-03-23T13:39:34;5.93;;;1.33;;
52878;SDS011;38747;53.140;6.498;2024-03-23T13:42:00;5.83;;;1.30;;
52878;SDS011;38747;53.140;6.498;2024-03-23T13:44:26;6.47;;;1.20;;
52878;SDS011;38747;53.140;6.498;2024-03-23T13:46:51;8.70;;;1.37;;
52878;SDS011;38747;53.140;6.498;2024-03-23T13:49:27;6.82;;;1.35;;
52878;SDS011;38747;53.140;6.498;2024-03-23T13:51:57;6.63;;;1.20;;
52878;SDS011;38747;53.140;6.498;2024-03-23T13:54:23;7.53;;;1.17;;
52878;SDS011;38747;53.140;6.498;2024-03-23T13:56:50;6.03;;;1.10;;
52878;SDS011;38747;53.140;6.498;2024-03-23T13:59:16;6.43;;;1.23;;
52878;SDS011;38747;53.140;6.498;2024-03-23T14:01:42;5.03;;;1.17;;
52878;SDS011;38747;53.140;6.498;2024-03-23T14:04:09;5.10;;;0.80;;
52878;SDS011;38747;53.140;6.498;2024-03-23T14:06:35;5.90;;;1.30;;
52878;SDS011;38747;53.140;6.498;2024-03-23T14:09:01;8.90;;;1.35;;
52878;SDS011;38747;53.140;6.498;2024-03-23T14:11:28;6.43;;;1.67;;
52878;SDS011;38747;53.140;6.498;2024-03-23T14:13:54;8.25;;;1.23;;
52878;SDS011;38747;53.140;6.498;2024-03-23T14:16:20;6.97;;;1.70;;
52878;SDS011;38747;53.140;6.498;2024-03-23T14:18:46;6.67;;;1.20;;
52878;SDS011;38747;53.140;6.498;2024-03-23T14:21:12;7.97;;;1.20;;
52878;SDS011;38747;53.140;6.498;2024-03-23T14:23:38;9.23;;;1.20;;
52878;SDS011;38747;53.140;6.498;2024-03-23T14:26:05;11.68;;;1.33;;
52878;SDS011;38747;53.140;6.498;2024-03-23T14:28:31;6.90;;;1.00;;
52878;SDS011;38747;53.140;6.498;2024-03-23T14:30:57;5.97;;;1.38;;
52878;SDS011;38747;53.140;6.498;2024-03-23T14:33:23;7.13;;;1.30;;
52878;SDS011;38747;53.140;6.498;2024-03-23T14:35:53;8.40;;;1.30;;
52878;SDS011;38747;53.140;6.498;2024-03-23T14:38:20;7.43;;;1.55;;
52878;SDS011;38747;53.140;6.498;2024-03-23T14:40:46;9.90;;;1.40;;
52878;SDS011;38747;53.140;6.498;2024-03-23T14:43:12;7.97;;;1.40;;
52878;SDS011;38747;53.140;6.498;2024-03-23T14:46:25;9.85;;;1.52;;
52878;SDS011;38747;53.140;6.498;2024-03-23T14:48:31;7.07;;;1.67;;
52878;SDS011;38747;53.140;6.498;2024-03-23T14:50:57;8.90;;;0.98;;
52878;SDS011;38747;53.140;6.498;2024-03-23T14:53:24;9.60;;;1.70;;
52878;SDS011;38747;53.140;6.498;2024-03-23T14:55:54;8.07;;;1.37;;
52878;SDS011;38747;53.140;6.498;2024-03-23T14:58:21;5.43;;;1.20;;
52878;SDS011;38747;53.140;6.498;2024-03-23T15:00:48;6.55;;;1.30;;
52878;SDS011;38747;53.140;6.498;2024-03-23T15:03:17;5.35;;;1.25;;
52878;SDS011;38747;53.140;6.498;2024-03-23T15:05:51;8.45;;;1.30;;
52878;SDS011;38747;53.140;6.498;2024-03-23T15:08:23;5.23;;;1.20;;
52878;SDS011;38747;53.140;6.498;2024-03-23T15:10:50;6.88;;;1.38;;
52878;SDS011;38747;53.140;6.498;2024-03-23T15:13:16;5.60;;;0.95;;
52878;SDS011;38747;53.140;6.498;2024-03-23T15:15:42;5.55;;;1.05;;
52878;SDS011;38747;53.140;6.498;2024-03-23T15:18:09;6.50;;;1.30;;
52878;SDS011;38747;53.140;6.498;2024-03-23T15:20:37;5.40;;;1.27;;
52878;SDS011;38747;53.140;6.498;2024-03-23T15:23:03;5.05;;;1.35;;
52878;SDS011;38747;53.140;6.498;2024-03-23T15:25:29;6.25;;;1.23;;
52878;SDS011;38747;53.140;6.498;2024-03-23T15:27:58;7.03;;;1.30;;
52878;SDS011;38747;53.140;6.498;2024-03-23T15:30:25;7.70;;;1.50;;
52878;SDS011;38747;53.140;6.498;2024-03-23T15:32:54;6.22;;;1.45;;
52878;SDS011;38747;53.140;6.498;2024-03-23T15:35:20;7.47;;;1.50;;
52878;SDS011;38747;53.140;6.498;2024-03-23T15:37:48;7.17;;;1.37;;
52878;SDS011;38747;53.140;6.498;2024-03-23T15:40:14;9.07;;;1.30;;
52878;SDS011;38747;53.140;6.498;2024-03-23T15:42:39;7.00;;;1.17;;
52878;SDS011;38747;53.140;6.498;2024-03-23T15:45:08;8.67;;;1.30;;